Richfield, Wisconsin
Current Conditions -  °F | °C
As of 2:10 PM on Saturday 20 Dec 2014 (Local Time) from KETB Reporting Station
Light Snow Light Snow  
Wind Chill: 30°   Ceiling: 3200
Heat Index: 30°   Visibility: 7mi
Dew Point: 23°   Wind: 0mph
Humidity: 75%   Direction: NA
Pressure: 30.21"   Gusts: NA
Location:  43.26°N, 88.19°W
Report Text: KETB 202010Z AUTO 00000KT 7SM -SN BKN032 OVC039 M01/M05 A3021 RMK AO2
Loading
Personal Weather Stations






























Interactive Weather Map New forecast layout! Learn more

10-Day Weather Forecast

Advertisements
Track Severe Weather on mobile